createdAt,value
2023-01-15T00:02:17.673Z,6.53
2023-01-15T00:07:38.774Z,6.58
2023-01-15T00:12:59.613Z,6.64
2023-01-15T00:18:20.357Z,6.69
2023-01-15T00:23:59.633Z,6.76
2023-01-15T00:29:22.483Z,6.81
2023-01-15T00:34:43.394Z,6.86
2023-01-15T00:40:04.397Z,6.93
2023-01-15T00:45:25.330Z,7.00
2023-01-15T00:50:47.070Z,7.06
2023-01-15T00:56:08.182Z,7.11
2023-01-15T01:01:30.877Z,7.15
2023-01-15T01:06:51.868Z,7.22
2023-01-15T01:12:12.688Z,7.25
2023-01-15T01:17:33.921Z,7.30
2023-01-15T01:22:54.828Z,7.30
2023-01-15T01:28:15.709Z,7.31
2023-01-15T01:33:36.699Z,7.32
2023-01-15T01:38:57.538Z,7.36
2023-01-15T01:44:36.621Z,7.40
2023-01-15T01:50:05.358Z,7.44
2023-01-15T01:55:27.802Z,7.47
2023-01-15T02:00:51.035Z,7.48
2023-01-15T02:06:14.469Z,7.54
2023-01-15T02:11:36.445Z,7.61
2023-01-15T02:17:07.175Z,7.67
2023-01-15T02:22:41.203Z,7.73
2023-01-15T02:28:20.210Z,7.80
2023-01-15T02:33:47.620Z,7.85
2023-01-15T02:39:12.764Z,7.87
2023-01-15T02:44:38.215Z,7.92
2023-01-15T02:50:02.808Z,7.94
2023-01-15T02:55:35.467Z,7.96
2023-01-15T03:01:01.558Z,7.92
2023-01-15T03:06:35.973Z,7.88
2023-01-15T03:12:06.374Z,7.85
2023-01-15T03:17:40.436Z,7.85
2023-01-15T03:23:09.257Z,7.87
2023-01-15T03:28:36.016Z,7.90
2023-01-15T03:33:58.661Z,7.93
2023-01-15T03:39:19.955Z,7.93
2023-01-15T03:45:09.455Z,7.94
2023-01-15T03:50:39.740Z,7.99
2023-01-15T03:56:05.627Z,8.03
2023-01-15T04:01:35.853Z,8.07
2023-01-15T04:06:58.693Z,8.11
2023-01-15T04:12:20.661Z,8.11
2023-01-15T04:17:42.476Z,8.12
2023-01-15T04:23:04.367Z,8.11
2023-01-15T04:28:25.404Z,8.13
2023-01-15T04:33:46.498Z,8.11
2023-01-15T04:39:07.290Z,8.13
2023-01-15T04:44:29.310Z,8.12
2023-01-15T04:49:50.385Z,8.09
2023-01-15T04:55:11.321Z,8.11
2023-01-15T05:00:31.961Z,8.11
2023-01-15T05:05:52.768Z,8.06
2023-01-15T05:11:13.413Z,8.03
2023-01-15T05:16:36.039Z,8.00
2023-01-15T05:21:56.955Z,8.00
2023-01-15T05:27:17.705Z,8.00
2023-01-15T05:32:38.422Z,8.00
2023-01-15T05:37:59.039Z,8.01
2023-01-15T05:43:19.727Z,7.99
2023-01-15T05:48:40.412Z,8.00
2023-01-15T05:54:01.451Z,7.98
2023-01-15T05:59:25.215Z,7.97
2023-01-15T06:04:46.214Z,7.96
2023-01-15T06:10:07.584Z,7.97
2023-01-15T06:15:28.531Z,7.99
2023-01-15T06:20:49.317Z,7.96
2023-01-15T06:26:16.262Z,7.97
2023-01-15T06:31:37.366Z,7.95
2023-01-15T06:36:58.142Z,7.93
2023-01-15T06:42:37.309Z,7.91
2023-01-15T06:47:58.755Z,7.89
2023-01-15T06:53:20.529Z,7.87
2023-01-15T06:58:44.610Z,7.88
2023-01-15T07:04:05.665Z,7.89
2023-01-15T07:09:26.233Z,7.88
2023-01-15T07:14:47.466Z,7.88
2023-01-15T07:20:08.640Z,7.91
2023-01-15T07:25:29.531Z,7.96
2023-01-15T07:30:50.312Z,8.00
2023-01-15T07:36:11.018Z,8.06
2023-01-15T07:41:50.322Z,8.13
2023-01-15T07:47:41.484Z,8.21
2023-01-15T07:53:02.422Z,8.27
2023-01-15T07:58:23.152Z,8.33
2023-01-15T08:03:43.889Z,8.38
2023-01-15T08:09:05.156Z,8.42
2023-01-15T08:14:44.263Z,8.46
2023-01-15T08:20:08.963Z,8.47
2023-01-15T08:25:29.541Z,8.51
2023-01-15T08:30:50.355Z,8.53
2023-01-15T08:36:11.267Z,8.56
2023-01-15T08:41:32.249Z,8.61
2023-01-15T08:46:53.265Z,8.64
2023-01-15T08:52:14.811Z,8.72
2023-01-15T08:57:35.935Z,8.76
2023-01-15T09:02:57.999Z,8.75
2023-01-15T09:08:20.319Z,8.78
2023-01-15T09:13:44.177Z,8.80
2023-01-15T09:19:06.950Z,8.84
2023-01-15T09:24:27.719Z,8.89
2023-01-15T09:29:48.386Z,8.93
2023-01-15T09:35:10.770Z,8.97
2023-01-15T09:40:51.009Z,9.01
2023-01-15T09:46:21.116Z,9.04
2023-01-15T09:52:08.729Z,9.06
2023-01-15T09:57:31.100Z,9.11
2023-01-15T10:03:21.227Z,9.12
2023-01-15T10:08:50.591Z,9.14
2023-01-15T10:14:21.119Z,9.17
2023-01-15T10:19:44.810Z,9.20
2023-01-15T10:25:14.872Z,9.20
2023-01-15T10:30:43.155Z,9.21
2023-01-15T10:36:29.342Z,9.25
2023-01-15T10:42:15.270Z,9.30
2023-01-15T10:47:39.263Z,9.32
2023-01-15T10:53:02.919Z,9.35
2023-01-15T10:58:34.070Z,9.37
2023-01-15T11:03:55.168Z,9.37
2023-01-15T11:09:31.223Z,9.35
2023-01-15T11:15:10.678Z,9.24
2023-01-15T11:20:42.879Z,9.08
2023-01-15T11:26:04.693Z,8.98
2023-01-15T11:31:40.113Z,8.84
2023-01-15T11:37:03.216Z,8.78
2023-01-15T11:42:42.981Z,8.78
2023-01-15T11:48:40.530Z,8.78
2023-01-15T11:54:05.508Z,8.85
2023-01-15T11:59:26.610Z,8.87
2023-01-15T12:04:55.588Z,8.89
2023-01-15T12:10:52.615Z,8.81
2023-01-15T12:16:24.601Z,8.75
2023-01-15T12:21:55.684Z,8.75
2023-01-15T12:27:44.651Z,8.73
2023-01-15T12:33:43.045Z,8.78
2023-01-15T12:39:28.725Z,8.63
2023-01-15T12:45:06.151Z,8.57
2023-01-15T12:50:31.918Z,8.50
2023-01-15T12:56:12.800Z,8.48
2023-01-15T13:01:42.653Z,8.45
2023-01-15T13:07:11.919Z,8.34
2023-01-15T13:12:33.732Z,8.31
2023-01-15T13:18:15.564Z,8.21
2023-01-15T13:23:44.464Z,8.21
2023-01-15T13:29:25.874Z,8.21
2023-01-15T13:35:05.427Z,8.08
2023-01-15T13:40:34.925Z,7.99
2023-01-15T13:45:57.318Z,7.99
2023-01-15T13:51:43.374Z,7.90
2023-01-15T13:57:09.231Z,7.71
2023-01-15T14:02:37.355Z,7.54
2023-01-15T14:08:01.379Z,8.09
2023-01-15T14:13:31.125Z,7.71
2023-01-15T14:19:05.917Z,7.41
2023-01-15T14:24:35.625Z,7.15
2023-01-15T14:30:05.987Z,7.03
2023-01-15T14:35:29.022Z,6.92
2023-01-15T14:41:03.551Z,6.77
2023-01-15T14:46:41.277Z,6.61
2023-01-15T14:52:02.852Z,6.56
2023-01-15T14:57:25.038Z,6.50
2023-01-15T15:02:48.782Z,6.49
2023-01-15T15:08:13.768Z,6.62
2023-01-15T15:13:37.927Z,6.67
2023-01-15T15:19:24.837Z,6.59
2023-01-15T15:24:54.043Z,6.47
2023-01-15T15:30:17.088Z,6.41
2023-01-15T15:35:40.423Z,6.32
2023-01-15T15:41:05.241Z,6.73
2023-01-15T15:46:52.303Z,7.10
2023-01-15T15:52:23.107Z,7.00
2023-01-15T15:57:51.017Z,6.89
2023-01-15T16:03:24.922Z,6.59
2023-01-15T16:08:53.787Z,6.44
2023-01-15T16:14:17.221Z,6.25
2023-01-15T16:19:38.137Z,6.12
2023-01-15T16:24:59.598Z,6.04
2023-01-15T16:30:21.365Z,5.99
2023-01-15T16:35:42.336Z,5.95
2023-01-15T16:41:03.921Z,5.89
2023-01-15T16:46:30.212Z,5.78
2023-01-15T16:51:54.152Z,5.76
2023-01-15T16:57:32.437Z,5.72
2023-01-15T17:02:53.246Z,5.67
2023-01-15T17:08:31.208Z,5.67
2023-01-15T17:14:06.725Z,5.58
2023-01-15T17:19:27.738Z,5.47
2023-01-15T17:24:58.712Z,5.44
2023-01-15T17:30:19.962Z,5.48
2023-01-15T17:35:43.509Z,5.39
2023-01-15T17:41:07.156Z,5.51
2023-01-15T17:46:28.832Z,5.39
2023-01-15T17:51:49.589Z,5.28
2023-01-15T17:57:28.764Z,5.12
2023-01-15T18:03:08.060Z,5.03
2023-01-15T18:08:31.190Z,4.97
2023-01-15T18:13:52.519Z,4.87
2023-01-15T18:19:13.620Z,4.75
2023-01-15T18:24:34.513Z,4.65
2023-01-15T18:29:55.367Z,4.58
2023-01-15T18:35:18.362Z,4.54
2023-01-15T18:40:39.093Z,4.62
2023-01-15T18:46:35.118Z,4.60
2023-01-15T18:52:16.079Z,4.63
2023-01-15T18:57:36.909Z,4.52
2023-01-15T19:02:58.079Z,4.48
2023-01-15T19:08:19.715Z,4.42
2023-01-15T19:13:40.376Z,4.47
2023-01-15T19:19:01.130Z,4.40
2023-01-15T19:24:21.817Z,4.38
2023-01-15T19:29:42.526Z,4.38
2023-01-15T19:35:03.533Z,4.37
2023-01-15T19:40:24.641Z,4.31
2023-01-15T19:46:04.359Z,4.27
2023-01-15T19:51:45.056Z,4.06
2023-01-15T19:57:05.905Z,3.97
2023-01-15T20:02:27.565Z,3.90
2023-01-15T20:07:48.568Z,3.84
2023-01-15T20:13:39.433Z,3.87
2023-01-15T20:19:00.359Z,3.79
2023-01-15T20:24:23.080Z,3.81
2023-01-15T20:29:48.187Z,3.86
2023-01-15T20:35:12.702Z,3.75
2023-01-15T20:40:33.328Z,3.69
2023-01-15T20:45:56.389Z,3.72
2023-01-15T20:51:19.714Z,3.74
2023-01-15T20:56:41.911Z,3.77
2023-01-15T21:02:02.988Z,3.80
2023-01-15T21:07:24.250Z,3.86
2023-01-15T21:12:45.278Z,3.75
2023-01-15T21:18:06.024Z,3.71
2023-01-15T21:23:27.832Z,3.66
2023-01-15T21:28:48.443Z,3.61
2023-01-15T21:34:09.397Z,3.60
2023-01-15T21:39:32.174Z,3.57
2023-01-15T21:44:54.092Z,3.46
2023-01-15T21:50:16.939Z,3.51
2023-01-15T21:55:37.598Z,3.49
2023-01-15T22:00:59.663Z,3.32
2023-01-15T22:06:20.664Z,3.19
2023-01-15T22:11:44.234Z,3.12
2023-01-15T22:17:05.626Z,3.08
2023-01-15T22:22:32.897Z,3.07
2023-01-15T22:27:54.107Z,3.10
2023-01-15T22:33:15.979Z,3.22
2023-01-15T22:38:36.818Z,3.32
2023-01-15T22:43:57.669Z,3.25
2023-01-15T22:49:18.700Z,3.20
2023-01-15T22:54:39.468Z,3.11
2023-01-15T23:00:00.257Z,3.00
2023-01-15T23:05:22.043Z,2.89
2023-01-15T23:10:47.575Z,3.02
2023-01-15T23:16:09.969Z,3.07
2023-01-15T23:21:30.891Z,3.20
2023-01-15T23:26:52.177Z,3.20
2023-01-15T23:32:12.991Z,3.23
2023-01-15T23:37:33.805Z,3.26
2023-01-15T23:43:13.058Z,3.20
2023-01-15T23:48:33.769Z,3.36
2023-01-15T23:53:55.678Z,3.41
2023-01-15T23:59:16.807Z,3.32
